createdAt,value
2018-04-13T00:02:14.575Z,62.90
2018-04-13T00:04:41.142Z,63.20
2018-04-13T00:07:08.002Z,63.50
2018-04-13T00:09:35.155Z,63.90
2018-04-13T00:12:02.587Z,64.10
2018-04-13T00:14:29.446Z,64.00
2018-04-13T00:16:56.895Z,64.30
2018-04-13T00:19:24.905Z,64.40
2018-04-13T00:21:52.106Z,64.30
2018-04-13T00:24:19.514Z,63.90
2018-04-13T00:26:46.134Z,63.60
2018-04-13T00:29:13.566Z,63.50
2018-04-13T00:31:40.724Z,63.60
2018-04-13T00:34:07.832Z,63.80
2018-04-13T00:36:34.975Z,63.80
2018-04-13T00:39:02.303Z,63.90
2018-04-13T00:41:30.188Z,63.70
2018-04-13T00:43:56.783Z,63.90
2018-04-13T00:46:23.931Z,64.00
2018-04-13T00:48:51.083Z,64.30
2018-04-13T00:51:18.504Z,64.40
2018-04-13T00:53:46.013Z,64.70
2018-04-13T00:56:13.202Z,65.00
2018-04-13T00:58:40.607Z,65.00
2018-04-13T01:01:07.760Z,65.60
2018-04-13T01:03:34.549Z,65.50
2018-04-13T01:06:01.123Z,65.60
2018-04-13T01:08:28.285Z,65.50
2018-04-13T01:10:55.387Z,65.70
2018-04-13T01:13:21.883Z,65.80
2018-04-13T01:15:49.727Z,66.00
2018-04-13T01:18:16.829Z,66.10
2018-04-13T01:20:43.996Z,66.30
2018-04-13T01:23:10.860Z,66.30
2018-04-13T01:25:37.954Z,66.40
2018-04-13T01:28:04.584Z,66.70
2018-04-13T01:30:31.314Z,66.80
2018-04-13T01:32:58.543Z,66.90
2018-04-13T01:35:25.648Z,67.00
2018-04-13T01:37:52.843Z,67.00
2018-04-13T01:40:19.997Z,67.00
2018-04-13T01:42:47.135Z,67.40
2018-04-13T01:45:14.319Z,67.50
2018-04-13T01:47:41.074Z,67.50
2018-04-13T01:50:07.665Z,67.50
2018-04-13T01:52:34.775Z,67.90
2018-04-13T01:55:01.367Z,67.80
2018-04-13T01:57:28.130Z,68.00
2018-04-13T01:59:54.678Z,67.90
2018-04-13T02:02:21.208Z,68.10
2018-04-13T02:04:47.760Z,68.20
2018-04-13T02:07:14.390Z,68.40
2018-04-13T02:09:41.118Z,68.30
2018-04-13T02:12:07.683Z,68.60
2018-04-13T02:14:34.227Z,68.60
2018-04-13T02:17:01.018Z,68.80
2018-04-13T02:19:27.523Z,69.10
2018-04-13T02:21:53.985Z,69.10
2018-04-13T02:24:20.573Z,69.20
2018-04-13T02:26:47.366Z,69.20
2018-04-13T02:29:14.008Z,69.80
2018-04-13T02:31:40.440Z,69.80
2018-04-13T02:34:06.987Z,69.60
2018-04-13T02:36:34.419Z,69.60
2018-04-13T02:39:00.931Z,69.50
2018-04-13T02:41:28.314Z,69.60
2018-04-13T02:43:55.259Z,70.00
2018-04-13T02:46:21.867Z,69.80
2018-04-13T02:48:48.382Z,70.10
2018-04-13T02:51:16.456Z,70.10
2018-04-13T02:53:44.525Z,70.20
2018-04-13T02:56:11.007Z,70.10
2018-04-13T02:58:37.547Z,70.40
2018-04-13T03:01:04.431Z,70.40
2018-04-13T03:03:30.925Z,70.40
2018-04-13T03:05:57.531Z,70.70
2018-04-13T03:08:23.980Z,70.80
2018-04-13T03:10:50.541Z,71.00
2018-04-13T03:13:17.102Z,70.80
2018-04-13T03:15:43.897Z,71.10
2018-04-13T03:18:10.507Z,71.00
2018-04-13T03:20:36.980Z,71.10
2018-04-13T03:23:03.515Z,71.20
2018-04-13T03:27:59.390Z,71.20
2018-04-13T03:30:25.878Z,71.20
2018-04-13T03:32:52.478Z,71.40
2018-04-13T03:35:21.171Z,71.50
2018-04-13T03:37:47.639Z,71.30
2018-04-13T03:40:14.218Z,71.70
2018-04-13T03:42:40.791Z,71.90
2018-04-13T03:45:07.860Z,72.00
2018-04-13T03:47:34.732Z,71.80
2018-04-13T03:50:01.584Z,71.80
2018-04-13T03:52:29.310Z,72.00
2018-04-13T03:54:56.200Z,72.00
2018-04-13T03:57:22.993Z,72.70
2018-04-13T03:59:49.534Z,73.10
2018-04-13T04:02:16.378Z,73.30
2018-04-13T04:04:43.201Z,73.50
2018-04-13T04:07:09.822Z,73.90
2018-04-13T04:09:36.358Z,73.90
2018-04-13T04:12:02.889Z,74.10
2018-04-13T04:14:29.642Z,74.30
2018-04-13T04:16:56.173Z,74.10
2018-04-13T04:19:34.910Z,74.20
2018-04-13T04:22:13.773Z,74.10
2018-04-13T04:24:52.394Z,73.80
2018-04-13T04:27:18.894Z,73.60
2018-04-13T04:29:45.438Z,73.70
2018-04-13T04:32:11.968Z,73.50
2018-04-13T04:34:39.424Z,73.30
2018-04-13T04:37:05.992Z,73.30
2018-04-13T04:39:32.491Z,73.30
2018-04-13T04:41:59.383Z,72.80
2018-04-13T04:44:25.968Z,72.80
2018-04-13T04:46:52.408Z,72.40
2018-04-13T04:49:18.984Z,72.60
2018-04-13T04:51:45.870Z,72.40
2018-04-13T04:54:12.926Z,72.50
2018-04-13T04:56:39.459Z,72.60
2018-04-13T04:59:06.066Z,72.30
2018-04-13T05:01:32.855Z,72.00
2018-04-13T05:03:59.487Z,71.40
2018-04-13T05:06:27.193Z,71.30
2018-04-13T05:08:53.696Z,71.50
2018-04-13T05:11:20.312Z,71.20
2018-04-13T05:13:46.760Z,71.00
2018-04-13T05:16:13.635Z,71.10
2018-04-13T05:18:40.131Z,70.80
2018-04-13T05:21:07.623Z,70.30
2018-04-13T05:23:35.106Z,69.50
2018-04-13T05:26:01.588Z,69.60
2018-04-13T05:28:28.090Z,69.40
2018-04-13T05:30:54.658Z,69.60
2018-04-13T05:33:21.186Z,68.90
2018-04-13T05:35:48.850Z,68.30
2018-04-13T05:38:15.469Z,68.30
2018-04-13T05:40:42.051Z,67.90
2018-04-13T05:43:08.534Z,67.80
2018-04-13T05:45:35.417Z,67.20
2018-04-13T05:48:02.338Z,66.50
2018-04-13T05:50:29.735Z,66.70
2018-04-13T05:52:56.227Z,66.60
2018-04-13T05:55:23.153Z,66.20
2018-04-13T05:57:49.653Z,66.30
2018-04-13T06:00:16.146Z,66.60
2018-04-13T06:02:42.790Z,66.10
2018-04-13T06:05:09.559Z,66.10
2018-04-13T06:07:37.330Z,65.60
2018-04-13T06:10:03.847Z,65.40
2018-04-13T06:12:30.403Z,65.00
2018-04-13T06:14:57.194Z,64.50
2018-04-13T06:17:23.787Z,64.00
2018-04-13T06:19:50.339Z,63.70
2018-04-13T06:22:16.786Z,63.80
2018-04-13T06:24:43.378Z,63.20
2018-04-13T06:27:09.858Z,62.50
2018-04-13T06:29:36.560Z,62.90
2018-04-13T06:32:03.350Z,61.70
2018-04-13T06:34:30.215Z,61.00
2018-04-13T06:36:56.666Z,60.40
2018-04-13T06:39:23.198Z,60.40
2018-04-13T06:41:49.591Z,59.40
2018-04-13T06:44:16.356Z,58.00
2018-04-13T06:46:43.556Z,57.30
2018-04-13T06:49:10.012Z,57.20
2018-04-13T06:51:36.557Z,56.70
2018-04-13T06:54:03.967Z,56.50
2018-04-13T06:56:30.799Z,56.00
2018-04-13T06:58:57.634Z,53.60
2018-04-13T07:01:24.806Z,52.20
2018-04-13T07:03:51.647Z,53.40
2018-04-13T07:06:19.039Z,52.50
2018-04-13T07:08:45.828Z,50.90
2018-04-13T07:11:12.578Z,50.70
2018-04-13T07:13:39.752Z,49.50
2018-04-13T07:16:08.006Z,48.60
2018-04-13T07:18:34.766Z,48.80
2018-04-13T07:21:01.387Z,48.00
2018-04-13T07:23:27.863Z,48.30
2018-04-13T07:25:54.371Z,47.40
2018-04-13T07:28:22.059Z,45.90
2018-04-13T07:30:48.826Z,44.50
2018-04-13T07:33:15.313Z,44.20
2018-04-13T07:35:42.774Z,42.60
2018-04-13T07:38:09.510Z,42.80
2018-04-13T07:40:35.915Z,42.60
2018-04-13T07:43:03.273Z,42.30
2018-04-13T07:45:30.096Z,40.10
2018-04-13T07:47:56.953Z,39.90
2018-04-13T07:50:24.102Z,39.40
2018-04-13T07:52:50.470Z,38.70
2018-04-13T07:55:17.134Z,38.00
2018-04-13T07:57:44.457Z,37.50
2018-04-13T08:00:10.878Z,36.20
2018-04-13T08:02:37.763Z,35.40
2018-04-13T08:05:04.150Z,33.90
2018-04-13T08:07:31.095Z,34.60
2018-04-13T08:09:57.484Z,34.70
2018-04-13T08:12:23.851Z,34.10
2018-04-13T08:14:51.339Z,33.90
2018-04-13T08:17:17.847Z,34.20
2018-04-13T08:19:44.299Z,32.70
2018-04-13T08:22:10.726Z,33.00
2018-04-13T08:24:37.503Z,32.70
2018-04-13T08:27:04.286Z,32.30
2018-04-13T08:29:31.124Z,31.90
2018-04-13T08:31:57.929Z,31.60
2018-04-13T08:34:24.996Z,31.20
2018-04-13T08:36:51.394Z,31.10
2018-04-13T08:39:17.997Z,29.80
2018-04-13T08:41:44.707Z,29.70
2018-04-13T08:44:11.078Z,30.10
2018-04-13T08:46:38.552Z,29.60
2018-04-13T08:49:04.963Z,29.90
2018-04-13T08:51:32.074Z,29.80
2018-04-13T08:53:58.453Z,29.60
2018-04-13T08:56:25.207Z,29.40
2018-04-13T08:58:51.582Z,28.60
2018-04-13T09:01:17.978Z,28.70
2018-04-13T09:03:45.196Z,28.10
2018-04-13T09:06:11.623Z,27.30
2018-04-13T09:08:38.163Z,28.00
2018-04-13T09:11:04.577Z,27.50
2018-04-13T09:13:31.563Z,26.80
2018-04-13T09:15:57.950Z,26.70
2018-04-13T09:18:24.312Z,26.40
2018-04-13T09:20:51.325Z,25.80
2018-04-13T09:23:18.079Z,26.60
2018-04-13T09:25:44.849Z,26.10
2018-04-13T09:28:11.282Z,26.20
2018-04-13T09:30:38.097Z,25.20
2018-04-13T09:33:04.563Z,25.90
2018-04-13T09:35:31.558Z,25.10
2018-04-13T09:37:58.391Z,25.10
2018-04-13T09:40:24.746Z,25.60
2018-04-13T09:42:51.906Z,26.40
2018-04-13T09:45:18.764Z,26.50
2018-04-13T09:47:45.410Z,25.40
2018-04-13T09:50:12.161Z,26.50
2018-04-13T09:52:39.831Z,26.80
2018-04-13T09:55:06.224Z,25.70
2018-04-13T09:57:32.619Z,26.00
2018-04-13T09:59:59.429Z,25.00
2018-04-13T10:02:31.881Z,25.70
2018-04-13T10:04:58.375Z,25.60
2018-04-13T10:07:25.429Z,25.90
2018-04-13T10:09:52.177Z,26.10
2018-04-13T10:12:18.562Z,26.40
2018-04-13T10:14:45.818Z,27.10
2018-04-13T10:17:12.422Z,26.70
2018-04-13T10:19:38.798Z,26.80
2018-04-13T10:22:05.184Z,26.80
2018-04-13T10:24:32.223Z,27.10
2018-04-13T10:26:59.049Z,26.50
2018-04-13T10:29:26.425Z,26.60
2018-04-13T10:31:53.712Z,26.80
2018-04-13T10:34:20.329Z,27.10
2018-04-13T10:36:46.748Z,27.70
2018-04-13T10:39:13.907Z,27.90
2018-04-13T10:41:40.546Z,28.70
2018-04-13T10:44:07.812Z,28.10
2018-04-13T10:46:34.484Z,27.90
2018-04-13T10:49:00.870Z,29.50
2018-04-13T10:51:27.627Z,29.70
2018-04-13T10:53:54.581Z,29.70
2018-04-13T10:56:21.041Z,28.80
2018-04-13T10:58:47.410Z,29.40
2018-04-13T11:01:15.010Z,29.10
2018-04-13T11:03:41.411Z,29.90
2018-04-13T11:06:08.043Z,31.00
2018-04-13T11:08:34.434Z,31.30
2018-04-13T11:11:01.706Z,31.50
2018-04-13T11:13:28.913Z,31.30
2018-04-13T11:15:55.731Z,31.00
2018-04-13T11:18:22.954Z,30.80
2018-04-13T11:20:50.070Z,30.40
2018-04-13T11:23:16.899Z,30.80
2018-04-13T11:25:43.734Z,30.70
2018-04-13T11:28:10.307Z,30.60
2018-04-13T11:30:37.466Z,30.30
2018-04-13T11:33:04.662Z,30.40
2018-04-13T11:35:31.031Z,31.00
2018-04-13T11:37:57.418Z,31.40
2018-04-13T11:40:24.299Z,31.30
2018-04-13T11:42:50.747Z,31.20
2018-04-13T11:45:17.895Z,31.50
2018-04-13T11:47:44.923Z,32.00
2018-04-13T11:50:11.382Z,31.90
2018-04-13T11:52:38.203Z,32.10
2018-04-13T11:55:04.982Z,31.70
2018-04-13T11:57:31.534Z,30.90
2018-04-13T11:59:58.320Z,31.10
2018-04-13T12:02:25.492Z,31.10
2018-04-13T12:04:51.890Z,30.60
2018-04-13T12:07:18.315Z,31.30
2018-04-13T12:09:44.775Z,31.30
2018-04-13T12:12:11.973Z,32.00
2018-04-13T12:14:39.350Z,30.80
2018-04-13T12:17:06.540Z,31.40
2018-04-13T12:19:32.935Z,31.90
2018-04-13T12:22:00.385Z,32.10
2018-04-13T12:24:27.491Z,32.30
2018-04-13T12:26:54.250Z,33.00
2018-04-13T12:29:21.403Z,32.60
2018-04-13T12:31:48.616Z,32.80
2018-04-13T12:34:15.095Z,32.90
2018-04-13T12:36:41.483Z,33.90
2018-04-13T12:39:08.756Z,33.70
2018-04-13T12:41:35.571Z,33.90
2018-04-13T12:44:02.107Z,33.20
2018-04-13T12:46:29.951Z,34.00
2018-04-13T12:48:56.359Z,33.90
2018-04-13T12:51:22.744Z,34.00
2018-04-13T12:53:50.204Z,34.20
2018-04-13T12:56:16.650Z,34.70
2018-04-13T12:58:43.746Z,34.80
2018-04-13T13:01:10.839Z,35.00
2018-04-13T13:03:37.664Z,35.20
2018-04-13T13:06:04.035Z,35.30
2018-04-13T13:08:31.241Z,35.60
2018-04-13T13:10:57.947Z,35.20
2018-04-13T13:13:24.389Z,35.30
2018-04-13T13:15:51.950Z,36.00
2018-04-13T13:18:18.377Z,35.30
2018-04-13T13:20:45.039Z,35.90
2018-04-13T13:23:11.436Z,35.60
2018-04-13T13:25:38.198Z,35.50
2018-04-13T13:28:04.942Z,36.20
2018-04-13T13:30:31.434Z,36.50
2018-04-13T13:32:58.183Z,36.40
2018-04-13T13:35:24.672Z,36.00
2018-04-13T13:37:51.067Z,36.10
2018-04-13T13:40:17.500Z,35.90
2018-04-13T13:42:43.899Z,36.50
2018-04-13T13:45:11.021Z,36.80
2018-04-13T13:47:37.844Z,36.50
2018-04-13T13:50:04.255Z,36.10
2018-04-13T13:52:30.699Z,36.50
2018-04-13T13:54:57.143Z,36.60
2018-04-13T13:57:23.987Z,36.20
2018-04-13T13:59:50.826Z,36.10
2018-04-13T14:02:18.550Z,36.40
2018-04-13T14:04:44.926Z,36.10
2018-04-13T14:07:11.662Z,36.10
2018-04-13T14:09:38.217Z,35.50
2018-04-13T14:12:04.669Z,36.00
2018-04-13T14:14:31.095Z,35.50
2018-04-13T14:16:57.867Z,35.60
2018-04-13T14:19:24.360Z,35.70
2018-04-13T14:21:50.895Z,35.30
2018-04-13T14:24:17.623Z,35.70
2018-04-13T14:26:44.431Z,35.70
2018-04-13T14:29:11.041Z,36.10
2018-04-13T14:31:37.786Z,36.00
2018-04-13T14:34:04.275Z,36.70
2018-04-13T14:36:30.746Z,36.50
2018-04-13T14:38:57.483Z,35.70
2018-04-13T14:41:24.083Z,36.30
2018-04-13T14:43:50.623Z,36.70
2018-04-13T14:46:17.007Z,36.60
2018-04-13T14:48:43.677Z,37.20
2018-04-13T14:51:10.119Z,37.50
2018-04-13T14:53:36.514Z,37.50
2018-04-13T14:56:02.952Z,38.00
2018-04-13T14:58:29.379Z,38.30
2018-04-13T15:00:56.047Z,38.20
2018-04-13T15:03:22.483Z,38.80
2018-04-13T15:05:48.971Z,38.40
2018-04-13T15:08:15.350Z,39.00
2018-04-13T15:10:42.100Z,38.10
2018-04-13T15:13:08.478Z,38.20
2018-04-13T15:15:34.868Z,39.00
2018-04-13T15:18:01.324Z,39.40
2018-04-13T15:20:27.710Z,39.60
2018-04-13T15:22:54.208Z,40.00
2018-04-13T15:25:20.697Z,40.60
2018-04-13T15:27:47.131Z,40.90
2018-04-13T15:30:13.511Z,41.10
2018-04-13T15:32:40.268Z,41.70
2018-04-13T15:35:07.251Z,41.90
2018-04-13T15:37:34.040Z,42.60
2018-04-13T15:40:00.438Z,42.50
2018-04-13T15:42:27.268Z,42.50
2018-04-13T15:44:54.063Z,42.40
2018-04-13T15:47:20.427Z,42.90
2018-04-13T15:49:46.871Z,42.90
2018-04-13T15:52:13.850Z,43.30
2018-04-13T15:54:40.381Z,43.20
2018-04-13T15:57:07.202Z,42.80
2018-04-13T15:59:33.603Z,44.40
2018-04-13T16:01:59.994Z,45.50
2018-04-13T16:04:26.404Z,45.70
2018-04-13T16:06:53.410Z,46.10
2018-04-13T16:09:19.794Z,46.20
2018-04-13T16:11:46.195Z,45.60
2018-04-13T16:14:12.683Z,45.10
2018-04-13T16:16:39.054Z,45.60
2018-04-13T16:19:05.799Z,46.20
2018-04-13T16:21:32.198Z,46.60
2018-04-13T16:23:58.606Z,46.90
2018-04-13T16:26:25.038Z,47.80
2018-04-13T16:28:51.604Z,46.90
2018-04-13T16:31:18.175Z,47.00
2018-04-13T16:33:44.977Z,47.40
2018-04-13T16:36:11.813Z,47.90
2018-04-13T16:38:38.753Z,48.00
2018-04-13T16:41:06.170Z,46.80
2018-04-13T16:43:32.970Z,46.60
2018-04-13T16:45:59.484Z,46.10
2018-04-13T16:48:26.014Z,46.10
2018-04-13T16:50:52.548Z,47.20
2018-04-13T16:53:19.399Z,47.40
2018-04-13T16:55:46.017Z,47.50
2018-04-13T16:58:12.472Z,48.00
2018-04-13T17:00:38.978Z,48.50
2018-04-13T17:03:05.910Z,48.70
2018-04-13T17:05:32.419Z,49.20
2018-04-13T17:07:58.918Z,49.00
2018-04-13T17:10:25.460Z,49.20
2018-04-13T17:12:52.285Z,50.00
2018-04-13T17:15:19.176Z,49.80
2018-04-13T17:17:45.655Z,48.60
2018-04-13T17:20:12.231Z,49.10
2018-04-13T17:22:39.666Z,49.20
2018-04-13T17:25:06.512Z,50.00
2018-04-13T17:27:33.327Z,50.40
2018-04-13T17:29:59.721Z,50.30
2018-04-13T17:32:26.627Z,50.30
2018-04-13T17:34:53.027Z,50.10
2018-04-13T17:37:19.402Z,49.40
2018-04-13T17:39:45.839Z,48.30
2018-04-13T17:42:12.346Z,47.50
2018-04-13T17:44:38.726Z,47.30
2018-04-13T17:47:05.522Z,47.10
2018-04-13T17:49:31.921Z,46.90
2018-04-13T17:51:58.682Z,46.90
2018-04-13T17:54:25.222Z,47.10
2018-04-13T17:56:51.978Z,47.20
2018-04-13T17:59:18.637Z,47.90
2018-04-13T18:01:45.053Z,50.00
2018-04-13T18:04:11.511Z,51.40
2018-04-13T18:06:37.929Z,53.50
2018-04-13T18:09:05.211Z,51.90
2018-04-13T18:11:32.035Z,51.20
2018-04-13T18:13:58.451Z,51.40
2018-04-13T18:16:24.972Z,50.90
2018-04-13T18:18:51.350Z,52.10
2018-04-13T18:21:18.129Z,52.80
2018-04-13T18:23:44.555Z,53.30
2018-04-13T18:26:11.016Z,54.30
2018-04-13T18:28:37.390Z,54.40
2018-04-13T18:31:03.783Z,54.70
2018-04-13T18:33:30.200Z,54.90
2018-04-13T18:35:56.666Z,55.20
2018-04-13T18:38:23.459Z,56.80
2018-04-13T18:40:49.931Z,57.80
2018-04-13T18:43:16.331Z,59.30
2018-04-13T18:45:43.458Z,60.30
2018-04-13T18:48:10.206Z,60.60
2018-04-13T18:50:36.771Z,61.80
2018-04-13T18:53:03.243Z,62.60
2018-04-13T18:55:29.652Z,63.30
2018-04-13T18:57:56.086Z,63.60
2018-04-13T19:00:22.642Z,63.80
2018-04-13T19:02:49.051Z,63.70
2018-04-13T19:05:15.438Z,64.10
2018-04-13T19:07:41.895Z,64.10
2018-04-13T19:10:08.498Z,64.50
2018-04-13T19:12:34.969Z,64.70
2018-04-13T19:15:01.346Z,65.10
2018-04-13T19:17:28.163Z,65.30
2018-04-13T19:19:54.528Z,65.20
2018-04-13T19:22:21.177Z,65.30
2018-04-13T19:24:47.604Z,65.40
2018-04-13T19:27:14.023Z,65.70
2018-04-13T19:29:40.852Z,65.60
2018-04-13T19:32:07.226Z,65.90
2018-04-13T19:34:33.688Z,65.60
2018-04-13T19:37:00.074Z,65.30
2018-04-13T19:39:26.867Z,65.30
2018-04-13T19:41:53.285Z,64.90
2018-04-13T19:44:19.790Z,64.90
2018-04-13T19:46:47.364Z,64.40
2018-04-13T19:49:13.732Z,64.90
2018-04-13T19:51:40.137Z,64.50
2018-04-13T19:54:07.299Z,64.30
2018-04-13T19:56:33.670Z,64.00
2018-04-13T19:59:00.034Z,63.70
2018-04-13T20:01:26.428Z,63.50
2018-04-13T20:03:52.813Z,63.60
2018-04-13T20:06:19.215Z,63.50
2018-04-13T20:08:45.986Z,62.00
2018-04-13T20:11:12.391Z,62.10
2018-04-13T20:13:39.199Z,61.60
2018-04-13T20:16:06.310Z,61.30
2018-04-13T20:18:33.123Z,61.30
2018-04-13T20:21:00.441Z,61.50
2018-04-13T20:23:27.364Z,61.90
2018-04-13T20:25:53.803Z,62.20
2018-04-13T20:28:20.275Z,62.20
2018-04-13T20:30:46.686Z,62.40
2018-04-13T20:33:13.478Z,62.80
2018-04-13T20:35:39.837Z,62.90
2018-04-13T20:38:06.213Z,62.90
2018-04-13T20:40:33.537Z,62.60
2018-04-13T20:42:59.934Z,62.50
2018-04-13T20:45:26.481Z,62.60
2018-04-13T20:50:21.306Z,62.30
2018-04-13T20:52:47.693Z,62.30
2018-04-13T20:55:14.496Z,61.50
2018-04-13T20:57:40.902Z,61.10
2018-04-13T21:00:07.350Z,60.90
2018-04-13T21:02:33.845Z,60.60
2018-04-13T21:05:00.677Z,60.70
2018-04-13T21:07:27.458Z,60.40
2018-04-13T21:09:53.850Z,60.10
2018-04-13T21:12:20.208Z,59.80
2018-04-13T21:14:47.381Z,59.80
2018-04-13T21:17:13.808Z,59.80
2018-04-13T21:19:40.228Z,59.70
2018-04-13T21:22:06.981Z,59.90
2018-04-13T21:24:33.377Z,60.10
2018-04-13T21:26:59.770Z,60.10
2018-04-13T21:29:26.759Z,60.20
2018-04-13T21:31:53.133Z,60.50
2018-04-13T21:34:19.506Z,60.60
2018-04-13T21:36:45.974Z,60.70
2018-04-13T21:39:12.479Z,60.40
2018-04-13T21:41:38.966Z,60.80
2018-04-13T21:44:05.775Z,61.20
2018-04-13T21:46:32.146Z,61.20
2018-04-13T21:48:58.930Z,61.10
2018-04-13T21:51:25.379Z,61.20
2018-04-13T21:53:51.772Z,61.00
2018-04-13T21:56:18.154Z,61.20
2018-04-13T21:58:44.658Z,61.70
2018-04-13T22:01:11.094Z,62.20
2018-04-13T22:03:37.645Z,63.20
2018-04-13T22:06:04.487Z,63.40
2018-04-13T22:08:31.272Z,63.90
2018-04-13T22:10:57.686Z,63.90
2018-04-13T22:13:33.871Z,64.30
2018-04-13T22:16:00.290Z,64.10
2018-04-13T22:18:27.845Z,63.90
2018-04-13T22:20:54.351Z,64.20
2018-04-13T22:23:20.807Z,64.20
2018-04-13T22:25:47.183Z,64.70
2018-04-13T22:28:14.970Z,64.80
2018-04-13T22:30:41.415Z,64.40
2018-04-13T22:33:07.844Z,64.40
2018-04-13T22:35:34.339Z,64.30
2018-04-13T22:38:01.143Z,64.20
2018-04-13T22:40:27.496Z,64.30
2018-04-13T22:42:53.870Z,64.40
2018-04-13T22:45:20.262Z,64.20
2018-04-13T22:47:46.619Z,64.60
2018-04-13T22:50:13.191Z,64.80
2018-04-13T22:52:39.926Z,64.70
2018-04-13T22:55:06.420Z,65.00
2018-04-13T22:57:33.615Z,64.70
2018-04-13T23:00:00.742Z,64.70
2018-04-13T23:02:27.185Z,64.90
2018-04-13T23:07:22.689Z,64.90
2018-04-13T23:09:49.139Z,64.90
2018-04-13T23:12:15.527Z,65.00
2018-04-13T23:14:42.355Z,65.20
2018-04-13T23:17:08.895Z,65.60
2018-04-13T23:19:35.312Z,66.20
2018-04-13T23:22:02.062Z,66.40
2018-04-13T23:24:28.449Z,66.70
2018-04-13T23:26:55.291Z,66.80
2018-04-13T23:29:21.681Z,66.90
2018-04-13T23:31:48.065Z,67.10
2018-04-13T23:34:14.603Z,67.10
2018-04-13T23:36:41.488Z,67.30
2018-04-13T23:39:08.590Z,67.20
2018-04-13T23:41:35.041Z,67.20
2018-04-13T23:44:01.554Z,67.60
2018-04-13T23:46:28.126Z,67.40
2018-04-13T23:48:54.866Z,67.70
2018-04-13T23:51:21.826Z,67.70
2018-04-13T23:53:48.209Z,68.00
2018-04-13T23:56:16.702Z,68.30
2018-04-13T23:58:43.078Z,68.40
